createdAt,value
2023-03-11T00:01:18.449Z,14.47
2023-03-11T00:04:07.281Z,14.91
2023-03-11T00:06:49.262Z,13.75
2023-03-11T00:09:37.287Z,12.55
2023-03-11T00:12:19.277Z,11.75
2023-03-11T00:15:14.301Z,11.12
2023-03-11T00:18:02.291Z,11.51
2023-03-11T00:20:41.398Z,13.66
2023-03-11T00:23:29.294Z,14.71
2023-03-11T00:26:04.422Z,14.36
2023-03-11T00:28:52.287Z,12.98
2023-03-11T00:31:29.209Z,11.85
2023-03-11T00:34:17.332Z,10.99
2023-03-11T00:36:59.329Z,11.07
2023-03-11T00:39:54.269Z,13.30
2023-03-11T00:42:42.298Z,14.62
2023-03-11T00:45:17.422Z,14.65
2023-03-11T00:48:05.285Z,13.41
2023-03-11T00:50:42.437Z,12.13
2023-03-11T00:53:30.272Z,11.27
2023-03-11T00:56:11.306Z,12.57
2023-03-11T00:58:52.714Z,14.46
2023-03-11T01:01:40.340Z,13.60
2023-03-11T01:04:21.297Z,12.20
2023-03-11T01:07:02.453Z,11.48
2023-03-11T01:09:43.365Z,13.40
2023-03-11T01:12:25.468Z,14.32
2023-03-11T01:15:07.362Z,13.06
2023-03-11T01:17:55.263Z,11.81
2023-03-11T01:20:36.298Z,11.78
2023-03-11T01:23:25.262Z,13.88
2023-03-11T01:26:21.293Z,13.36
2023-03-11T01:29:16.276Z,11.93
2023-03-11T01:32:04.252Z,11.74
2023-03-11T01:34:46.274Z,13.80
2023-03-11T01:37:41.259Z,13.28
2023-03-11T01:40:42.339Z,11.80
2023-03-11T01:43:51.575Z,11.51
2023-03-11T01:47:01.324Z,13.79
2023-03-11T01:49:36.459Z,13.08
2023-03-11T01:52:31.878Z,11.80
2023-03-11T01:55:29.278Z,10.86
2023-03-11T01:58:19.268Z,12.11
2023-03-11T02:01:01.397Z,13.66
2023-03-11T02:03:50.239Z,12.66
2023-03-11T02:06:29.393Z,11.51
2023-03-11T02:09:17.246Z,10.88
2023-03-11T02:11:52.390Z,12.88
2023-03-11T02:14:41.259Z,13.97
2023-03-11T02:17:23.251Z,12.70
2023-03-11T02:20:46.261Z,11.45
2023-03-11T02:23:44.265Z,11.60
2023-03-11T02:26:34.417Z,13.46
2023-03-11T02:29:22.403Z,12.54
2023-03-11T02:31:57.410Z,11.46
2023-03-11T02:34:46.275Z,10.67
2023-03-11T02:37:23.444Z,10.10
2023-03-11T02:40:38.272Z,11.03
2023-03-11T02:43:15.374Z,13.03
2023-03-11T02:46:03.286Z,12.17
2023-03-11T02:48:38.384Z,11.13
2023-03-11T02:51:26.271Z,10.36
2023-03-11T02:54:04.405Z,9.87
2023-03-11T02:56:52.249Z,11.37
2023-03-11T02:59:27.861Z,13.36
2023-03-11T03:02:16.242Z,12.43
2023-03-11T03:04:58.306Z,11.26
2023-03-11T03:07:53.257Z,10.40
2023-03-11T03:10:41.283Z,9.78
2023-03-11T03:13:16.443Z,10.97
2023-03-11T03:16:04.341Z,12.88
2023-03-11T03:18:46.277Z,12.19
2023-03-11T03:21:34.251Z,10.98
2023-03-11T03:24:16.283Z,10.19
2023-03-11T03:27:04.257Z,9.59
2023-03-11T03:29:39.380Z,9.15
2023-03-11T03:32:27.344Z,9.16
2023-03-11T03:35:02.403Z,11.58
2023-03-11T03:37:57.256Z,11.85
2023-03-11T03:40:52.270Z,10.70
2023-03-11T03:43:40.262Z,9.79
2023-03-11T03:46:15.474Z,9.18
2023-03-11T03:49:03.356Z,8.75
2023-03-11T03:51:38.389Z,8.42
2023-03-11T03:54:26.262Z,9.94
2023-03-11T03:57:01.388Z,11.11
2023-03-11T03:59:49.416Z,10.22
2023-03-11T04:02:24.491Z,9.39
2023-03-11T04:05:13.253Z,8.81
2023-03-11T04:07:54.242Z,8.39
2023-03-11T04:10:49.247Z,8.06
2023-03-11T04:13:37.245Z,8.97
2023-03-11T04:16:13.436Z,11.38
2023-03-11T04:19:01.255Z,10.64
2023-03-11T04:21:36.378Z,9.63
2023-03-11T04:24:25.304Z,8.90
2023-03-11T04:27:00.403Z,8.37
2023-03-11T04:29:48.249Z,7.97
2023-03-11T04:32:30.295Z,9.25
2023-03-11T04:35:25.320Z,11.26
2023-03-11T04:38:20.276Z,10.21
2023-03-11T04:41:16.231Z,9.19
2023-03-11T04:44:06.256Z,8.48
2023-03-11T04:46:41.370Z,8.02
2023-03-11T04:49:29.249Z,7.72
2023-03-11T04:52:04.388Z,9.47
2023-03-11T04:54:52.239Z,11.89
2023-03-11T04:57:40.236Z,10.98
2023-03-11T05:00:15.903Z,9.77
2023-03-11T05:03:04.264Z,8.94
2023-03-11T05:05:38.695Z,8.33
2023-03-11T05:08:26.254Z,7.93
2023-03-11T05:11:00.663Z,7.61
2023-03-11T05:13:48.247Z,8.24
2023-03-11T05:16:22.733Z,10.80
2023-03-11T05:19:30.233Z,10.61
2023-03-11T05:22:05.497Z,9.42
2023-03-11T05:24:53.234Z,8.71
2023-03-11T05:27:34.253Z,8.11
2023-03-11T05:30:16.361Z,7.74
2023-03-11T05:32:57.306Z,9.41
2023-03-11T05:35:38.485Z,11.16
2023-03-11T05:38:20.267Z,10.16
2023-03-11T05:41:01.436Z,9.14
2023-03-11T05:43:43.256Z,8.42
2023-03-11T05:46:31.306Z,7.89
2023-03-11T05:49:05.729Z,8.36
2023-03-11T05:51:53.245Z,11.02
2023-03-11T05:54:41.235Z,11.47
2023-03-11T05:57:23.231Z,10.22
2023-03-11T06:00:20.230Z,9.09
2023-03-11T06:03:08.338Z,8.23
2023-03-11T06:05:43.368Z,9.33
2023-03-11T06:08:31.317Z,11.56
2023-03-11T06:11:17.302Z,10.70
2023-03-11T06:14:05.335Z,9.25
2023-03-11T06:16:40.542Z,8.31
2023-03-11T06:19:28.268Z,8.15
2023-03-11T06:22:10.229Z,10.50
2023-03-11T06:25:05.267Z,10.49
2023-03-11T06:27:58.221Z,9.20
2023-03-11T06:30:39.346Z,8.27
2023-03-11T06:33:21.232Z,8.25
2023-03-11T06:36:06.436Z,10.90
2023-03-11T06:38:47.276Z,11.11
2023-03-11T06:41:35.232Z,9.66
2023-03-11T06:44:11.172Z,8.55
2023-03-11T06:46:59.228Z,9.73
2023-03-11T06:49:40.226Z,11.34
2023-03-11T06:52:28.342Z,10.29
2023-03-11T06:55:03.905Z,8.84
2023-03-11T06:57:57.653Z,8.42
2023-03-11T07:00:37.564Z,10.46
2023-03-11T07:03:28.461Z,9.71
2023-03-11T07:06:08.068Z,8.13
2023-03-11T07:09:04.895Z,8.80
2023-03-11T07:11:41.985Z,10.91
2023-03-11T07:14:32.235Z,10.02
2023-03-11T07:17:06.774Z,8.30
2023-03-11T07:20:09.617Z,8.22
2023-03-11T07:22:56.999Z,10.58
2023-03-11T07:25:46.832Z,9.72
2023-03-11T07:28:35.020Z,8.02
2023-03-11T07:31:39.824Z,8.35
2023-03-11T07:34:32.234Z,9.71
2023-03-11T07:37:34.548Z,8.03
2023-03-11T07:40:32.979Z,8.00
2023-03-11T07:43:18.992Z,9.91
2023-03-11T07:46:20.583Z,8.72
2023-03-11T07:49:14.031Z,7.18
2023-03-11T07:51:51.617Z,9.02
2023-03-11T07:54:45.550Z,9.72
2023-03-11T07:57:57.280Z,8.02
2023-03-11T08:00:41.567Z,7.18
2023-03-11T08:03:29.840Z,9.23
2023-03-11T08:06:25.940Z,10.29
2023-03-11T08:09:15.285Z,8.70
2023-03-11T08:12:06.598Z,7.29
2023-03-11T08:14:53.836Z,7.98
2023-03-11T08:17:44.273Z,9.77
2023-03-11T08:20:33.489Z,8.48
2023-03-11T08:23:21.254Z,6.92
2023-03-11T08:26:18.820Z,7.10
2023-03-11T08:29:08.209Z,9.47
2023-03-11T08:32:17.620Z,9.56
2023-03-11T08:35:17.240Z,7.76
2023-03-11T08:37:58.911Z,6.69
2023-03-11T08:41:01.609Z,6.65
2023-03-11T08:43:43.577Z,9.22
2023-03-11T08:46:39.197Z,9.35
2023-03-11T08:49:20.599Z,7.85
2023-03-11T08:52:13.758Z,6.78
2023-03-11T08:55:06.991Z,6.56
2023-03-11T08:58:08.186Z,8.96
2023-03-11T09:00:46.566Z,8.37
2023-03-11T09:03:43.858Z,7.19
2023-03-11T09:06:32.294Z,6.39
2023-03-11T09:09:35.085Z,7.09
2023-03-11T09:12:20.096Z,9.28
2023-03-11T09:15:21.446Z,8.41
2023-03-11T09:18:04.521Z,7.16
2023-03-11T09:21:00.092Z,6.36
2023-03-11T09:23:46.022Z,7.71
2023-03-11T09:26:43.329Z,9.52
2023-03-11T09:29:30.586Z,8.24
2023-03-11T09:32:25.518Z,6.91
2023-03-11T09:35:14.661Z,6.30
2023-03-11T09:38:09.798Z,8.93
2023-03-11T09:41:23.637Z,8.71
2023-03-11T09:44:44.624Z,7.01
2023-03-11T09:47:34.601Z,6.93
2023-03-11T09:50:41.829Z,9.38
2023-03-11T09:53:35.209Z,8.45
2023-03-11T09:56:30.680Z,6.87
2023-03-11T09:59:33.834Z,6.18
2023-03-11T10:02:45.348Z,8.90
2023-03-11T10:05:39.085Z,8.87
2023-03-11T10:12:03.277Z,6.10
2023-03-11T10:15:39.658Z,7.94
2023-03-11T10:18:33.212Z,9.00
2023-03-11T10:21:49.205Z,7.45
2023-03-11T10:24:53.307Z,6.31
2023-03-11T10:28:03.201Z,8.01
2023-03-11T10:30:43.308Z,8.85
2023-03-11T10:33:54.209Z,7.48
2023-03-11T10:36:55.351Z,6.40
2023-03-11T10:39:43.210Z,8.55
2023-03-11T10:42:32.226Z,9.73
2023-03-11T10:45:21.186Z,8.19
2023-03-11T10:47:58.819Z,6.92
2023-03-11T10:51:25.289Z,6.76
2023-03-11T10:54:09.231Z,9.11
2023-03-11T10:57:13.284Z,8.11
2023-03-11T11:00:27.004Z,6.74
2023-03-11T11:03:14.534Z,7.07
2023-03-11T11:06:17.709Z,9.22
2023-03-11T11:09:30.751Z,8.11
2023-03-11T11:12:22.585Z,6.62
2023-03-11T11:15:54.800Z,7.11
2023-03-11T11:19:02.864Z,9.52
2023-03-11T11:22:04.583Z,7.69
2023-03-11T11:25:01.095Z,6.25
2023-03-11T11:27:45.763Z,7.30
2023-03-11T11:30:47.322Z,8.86
2023-03-11T11:33:34.360Z,7.55
2023-03-11T11:36:37.126Z,6.24
2023-03-11T11:39:40.461Z,7.36
2023-03-11T11:43:17.659Z,9.29
2023-03-11T11:46:39.053Z,6.97
2023-03-11T11:49:48.802Z,6.09
2023-03-11T11:53:29.526Z,8.81
2023-03-11T11:56:30.299Z,7.83
2023-03-11T11:59:32.956Z,6.16
2023-03-11T12:02:11.288Z,6.59
2023-03-11T12:05:22.232Z,8.89
2023-03-11T12:08:15.873Z,7.97
2023-03-11T12:11:05.184Z,6.08
2023-03-11T12:14:00.659Z,6.99
2023-03-11T12:17:10.155Z,9.13
2023-03-11T12:20:19.158Z,7.74
2023-03-11T12:23:29.170Z,5.89
2023-03-11T12:26:31.180Z,7.40
2023-03-11T12:29:26.172Z,8.86
2023-03-11T12:32:21.214Z,7.14
2023-03-11T12:35:32.202Z,5.69
2023-03-11T12:38:13.459Z,7.67
2023-03-11T12:41:13.173Z,8.54
2023-03-11T12:43:47.499Z,6.83
2023-03-11T12:47:01.350Z,5.47
2023-03-11T12:49:39.375Z,7.15
2023-03-11T12:52:36.169Z,7.96
2023-03-11T12:55:10.844Z,6.32
2023-03-11T12:58:08.182Z,5.39
2023-03-11T13:00:58.293Z,7.34
2023-03-11T13:03:56.166Z,8.34
2023-03-11T13:07:28.305Z,6.69
2023-03-11T13:10:20.202Z,4.91
2023-03-11T13:12:58.297Z,6.73
2023-03-11T13:15:48.164Z,8.32
2023-03-11T13:18:33.109Z,7.11
2023-03-11T13:21:39.171Z,5.40
2023-03-11T13:24:26.310Z,5.66
2023-03-11T13:27:27.460Z,7.86
2023-03-11T13:30:27.527Z,8.31
2023-03-11T13:33:38.160Z,6.27
2023-03-11T13:36:31.313Z,5.04
2023-03-11T13:39:29.265Z,7.05
2023-03-11T13:42:35.430Z,7.27
2023-03-11T13:45:43.275Z,5.48
2023-03-11T13:48:28.506Z,4.88
2023-03-11T13:51:30.372Z,7.08
2023-03-11T13:54:20.485Z,7.92
2023-03-11T13:57:05.168Z,6.25
2023-03-11T13:59:46.293Z,4.77
2023-03-11T14:02:30.175Z,5.15
2023-03-11T14:05:13.288Z,7.53
2023-03-11T14:07:54.165Z,8.08
2023-03-11T14:10:44.179Z,6.53
2023-03-11T14:13:19.803Z,5.13
2023-03-11T14:16:24.171Z,4.81
2023-03-11T14:19:15.586Z,7.29
2023-03-11T14:22:05.174Z,8.03
2023-03-11T14:24:47.274Z,6.46
2023-03-11T14:27:28.369Z,4.93
2023-03-11T14:30:14.756Z,5.79
2023-03-11T14:33:15.448Z,7.34
2023-03-11T14:36:06.065Z,6.03
2023-03-11T14:39:01.144Z,4.46
2023-03-11T14:41:49.162Z,4.82
2023-03-11T14:44:24.331Z,7.07
2023-03-11T14:47:46.389Z,6.78
2023-03-11T14:50:48.135Z,4.82
2023-03-11T14:53:39.936Z,4.71
2023-03-11T14:56:32.153Z,6.98
2023-03-11T14:59:23.226Z,7.07
2023-03-11T15:02:07.266Z,5.31
2023-03-11T15:04:52.153Z,4.02
2023-03-11T15:07:34.700Z,4.79
2023-03-11T15:10:18.129Z,7.07
2023-03-11T15:13:12.340Z,7.11
2023-03-11T15:16:05.171Z,5.26
2023-03-11T15:18:46.259Z,4.29
2023-03-11T15:21:30.142Z,6.02
2023-03-11T15:24:19.297Z,7.21
2023-03-11T15:27:10.354Z,5.76
2023-03-11T15:30:08.181Z,4.13
2023-03-11T15:32:45.585Z,4.67
2023-03-11T15:35:35.176Z,6.86
2023-03-11T15:38:28.681Z,6.42
2023-03-11T15:41:16.143Z,4.73
2023-03-11T15:43:57.133Z,3.65
2023-03-11T15:46:45.137Z,4.91
2023-03-11T15:49:27.134Z,7.18
2023-03-11T15:52:16.158Z,7.00
2023-03-11T15:54:58.141Z,5.30
2023-03-11T15:57:39.526Z,3.92
2023-03-11T16:00:29.136Z,3.84
2023-03-11T16:03:18.142Z,6.30
2023-03-11T16:05:52.546Z,6.94
2023-03-11T16:08:40.137Z,5.54
2023-03-11T16:11:22.119Z,4.13
2023-03-11T16:14:03.260Z,4.07
2023-03-11T16:16:45.124Z,6.38
2023-03-11T16:19:26.267Z,7.08
2023-03-11T16:22:08.211Z,5.51
2023-03-11T16:24:56.147Z,4.04
2023-03-11T16:27:38.261Z,3.05
2023-03-11T16:30:27.129Z,4.16
2023-03-11T16:33:04.331Z,6.71
2023-03-11T16:35:53.290Z,7.22
2023-03-11T16:38:29.360Z,5.69
2023-03-11T16:41:17.250Z,4.24
2023-03-11T16:44:00.519Z,3.24
2023-03-11T16:46:57.156Z,4.42
2023-03-11T16:49:38.134Z,6.95
2023-03-11T16:52:21.015Z,7.48
2023-03-11T16:55:04.106Z,6.09
2023-03-11T16:57:47.006Z,4.53
2023-03-11T17:00:28.135Z,3.51
2023-03-11T17:03:09.431Z,3.71
2023-03-11T17:05:51.133Z,6.11
2023-03-11T17:08:32.284Z,7.58
2023-03-11T17:11:13.129Z,6.91
2023-03-11T17:13:56.686Z,5.19
2023-03-11T17:16:42.209Z,4.05
2023-03-11T17:19:24.443Z,5.33
2023-03-11T17:22:06.106Z,7.39
2023-03-11T17:24:47.272Z,7.26
2023-03-11T17:27:29.231Z,5.60
2023-03-11T17:30:14.884Z,4.19
2023-03-11T17:32:57.276Z,3.97
2023-03-11T17:35:38.350Z,6.44
2023-03-11T17:38:19.116Z,7.67
2023-03-11T17:41:20.105Z,6.37
2023-03-11T17:44:08.165Z,4.74
2023-03-11T17:46:56.279Z,3.84
2023-03-11T17:49:30.533Z,5.66
2023-03-11T17:52:20.120Z,7.51
2023-03-11T17:55:16.102Z,6.03
2023-03-11T17:58:04.114Z,4.24
2023-03-11T18:00:39.241Z,3.09
2023-03-11T18:03:28.653Z,3.53
2023-03-11T18:06:09.250Z,6.15
2023-03-11T18:08:57.113Z,5.78
2023-03-11T18:11:34.269Z,4.20
2023-03-11T18:14:22.087Z,2.94
2023-03-11T18:17:04.226Z,2.88
2023-03-11T18:19:59.096Z,5.44
2023-03-11T18:22:52.109Z,6.46
2023-03-11T18:25:27.249Z,4.92
2023-03-11T18:28:19.339Z,3.52
2023-03-11T18:30:54.258Z,2.73
2023-03-11T18:33:42.103Z,4.21
2023-03-11T18:36:22.301Z,6.35
2023-03-11T18:39:11.119Z,5.78
2023-03-11T18:42:06.167Z,4.24
2023-03-11T18:44:54.312Z,2.97
2023-03-11T18:47:36.408Z,2.73
2023-03-11T18:50:28.110Z,5.08
2023-03-11T18:53:09.214Z,6.08
2023-03-11T18:55:50.101Z,4.73
2023-03-11T18:58:32.223Z,3.41
2023-03-11T19:01:27.260Z,2.53
2023-03-11T19:04:15.096Z,2.54
2023-03-11T19:06:50.421Z,5.17
2023-03-11T19:09:39.196Z,6.28
2023-03-11T19:12:14.537Z,5.02
2023-03-11T19:15:03.121Z,3.59
2023-03-11T19:17:51.698Z,2.66
2023-03-11T19:20:35.486Z,2.02
2023-03-11T19:23:18.111Z,3.46
2023-03-11T19:26:06.124Z,5.81
2023-03-11T19:28:40.583Z,4.93
2023-03-11T19:31:28.112Z,3.65
2023-03-11T19:34:03.655Z,2.71
2023-03-11T19:36:53.101Z,2.04
2023-03-11T19:39:45.104Z,2.48
2023-03-11T19:42:36.338Z,5.50
2023-03-11T19:45:12.875Z,6.62
2023-03-11T19:48:03.774Z,5.27
2023-03-11T19:50:54.182Z,3.94
2023-03-11T19:53:44.110Z,2.89
2023-03-11T19:56:19.219Z,2.20
2023-03-11T19:59:07.087Z,2.91
2023-03-11T20:01:52.122Z,5.78
2023-03-11T20:04:47.163Z,6.05
2023-03-11T20:07:35.261Z,4.45
2023-03-11T20:10:11.305Z,3.31
2023-03-11T20:13:02.350Z,2.55
2023-03-11T20:15:38.431Z,2.04
2023-03-11T20:18:26.078Z,3.72
2023-03-11T20:21:00.282Z,6.07
2023-03-11T20:23:50.079Z,5.01
2023-03-11T20:26:34.158Z,3.62
2023-03-11T20:29:31.946Z,2.61
2023-03-11T20:32:23.388Z,1.88
2023-03-11T20:35:06.135Z,1.79
2023-03-11T20:37:55.095Z,4.56
2023-03-11T20:40:38.187Z,6.13
2023-03-11T20:43:31.737Z,4.76
2023-03-11T20:46:10.385Z,3.36
2023-03-11T20:49:03.237Z,2.40
2023-03-11T20:51:50.507Z,1.71
2023-03-11T20:54:46.498Z,1.21
2023-03-11T20:57:34.676Z,3.07
2023-03-11T21:00:18.458Z,5.33
2023-03-11T21:03:00.160Z,4.78
2023-03-11T21:05:45.873Z,3.40
2023-03-11T21:08:27.093Z,2.44
2023-03-11T21:11:16.164Z,1.76
2023-03-11T21:13:52.070Z,1.30
2023-03-11T21:16:40.186Z,1.50
2023-03-11T21:19:14.943Z,4.29
2023-03-11T21:22:03.061Z,6.12
2023-03-11T21:24:39.349Z,4.95
2023-03-11T21:27:33.075Z,3.55
2023-03-11T21:30:08.761Z,2.52
2023-03-11T21:32:58.123Z,1.81
2023-03-11T21:35:32.518Z,1.33
2023-03-11T21:38:20.361Z,2.74
2023-03-11T21:41:20.266Z,5.43
2023-03-11T21:44:10.530Z,5.08
2023-03-11T21:46:52.425Z,3.61
2023-03-11T21:49:33.358Z,2.50
2023-03-11T21:52:15.110Z,1.78
2023-03-11T21:55:04.088Z,1.19
2023-03-11T21:57:38.504Z,1.80
2023-03-11T22:00:27.109Z,4.80
2023-03-11T22:03:08.057Z,6.20
2023-03-11T22:05:56.366Z,4.82
2023-03-11T22:08:38.187Z,3.39
2023-03-11T22:11:22.373Z,2.31
2023-03-11T22:14:07.239Z,1.60
2023-03-11T22:16:55.302Z,1.15
2023-03-11T22:19:50.282Z,3.09
2023-03-11T22:22:36.289Z,5.91
2023-03-11T22:25:17.037Z,5.29
2023-03-11T22:28:05.243Z,3.64
2023-03-11T22:30:41.455Z,2.52
2023-03-11T22:33:31.251Z,1.73
2023-03-11T22:36:07.954Z,1.51
2023-03-11T22:38:56.066Z,4.04
2023-03-11T22:41:31.000Z,5.85
2023-03-11T22:44:19.081Z,4.70
2023-03-11T22:46:53.459Z,3.31
2023-03-11T22:49:41.067Z,2.33
2023-03-11T22:52:16.260Z,1.63
2023-03-11T22:55:04.158Z,1.84
2023-03-11T22:57:39.164Z,4.55
2023-03-11T23:00:31.215Z,5.79
2023-03-11T23:03:05.797Z,4.46
2023-03-11T23:05:54.063Z,3.12
2023-03-11T23:08:35.081Z,2.18
2023-03-11T23:11:18.241Z,1.51
2023-03-11T23:13:59.033Z,1.14
2023-03-11T23:16:41.640Z,3.10
2023-03-11T23:19:23.057Z,5.71
2023-03-11T23:22:05.458Z,5.48
2023-03-11T23:24:48.100Z,3.98
2023-03-11T23:27:29.151Z,2.76
2023-03-11T23:30:10.228Z,1.99
2023-03-11T23:32:52.198Z,1.43
2023-03-11T23:35:33.151Z,2.93
2023-03-11T23:38:22.040Z,5.60
2023-03-11T23:41:03.083Z,5.51
2023-03-11T23:43:44.173Z,3.94
2023-03-11T23:46:25.066Z,2.85
2023-03-11T23:49:13.048Z,2.00
2023-03-11T23:51:47.443Z,1.42
2023-03-11T23:54:35.046Z,1.49
2023-03-11T23:57:09.454Z,3.88
2023-03-11T23:59:58.224Z,5.92
